Time;durP1;ratioP1;P1;durP2;ratioP2;P2;SDS_P1;SDS_P2;PMS_P1;PMS_P2;Temp;Humidity;BMP_temperature;BMP_pressure;BME280_temperature;BME280_humidity;BME280_pressure;Samples;Min_cycle;Max_cycle;Signal;HPM_P1;HPM_P2
2022/05/03 00:01:47;;;;;;;;;;;;;;;10.31;62.29;96403.63;1698006;85;20126;-86
2022/05/03 00:04:25;;;;;;;;;;;;;;;10.29;62.04;96395.22;1680191;85;20080;-85
2022/05/03 00:06:54;;;;;;;;;;;;;;;10.31;62.43;96396.64;1708308;84;20136;-86
2022/05/03 00:09:24;;;;;;;;;;;;;;;10.33;62.29;96387.38;1714972;83;20124;-85
2022/05/03 00:12:02;;;;;;;;;;;;;;;10.36;62.24;96380.02;1725873;83;20109;-86
2022/05/03 00:14:37;;;;;;;;;;;;;;;10.40;62.75;96383.86;1726289;83;20329;-86
2022/05/03 00:17:03;;;;;;;;;;;;;;;10.43;62.72;96378.83;1726060;83;20093;-86
2022/05/03 00:19:29;;;;;;;;;;;;;;;10.45;62.60;96383.34;1726076;83;20145;-86
2022/05/03 00:21:55;;;;;;;;;;;;;;;10.45;62.65;96384.15;1725981;83;20145;-86
2022/05/03 00:24:21;;;;;;;;;;;;;;;10.47;62.66;96389.16;1701453;83;20097;-86
2022/05/03 00:26:46;;;;;;;;;;;;;;;10.49;62.93;96391.08;1681605;85;20134;-86
2022/05/03 00:29:12;;;;;;;;;;;;;;;10.49;63.27;96384.59;1710406;84;20156;-86
2022/05/03 00:31:37;;;;;;;;;;;;;;;10.47;63.01;96382.17;1685121;85;20368;-86
2022/05/03 00:34:03;;;;;;;;;;;;;;;10.46;63.00;96377.16;1723634;83;20113;-86
2022/05/03 00:36:29;;;;;;;;;;;;;;;10.46;62.75;96380.56;1698059;85;20151;-86
2022/05/03 00:38:54;;;;;;;;;;;;;;;10.47;62.55;96375.67;1691803;84;20099;-86
2022/05/03 00:41:30;;;;;;;;;;;;;;;10.48;62.47;96381.68;1696042;84;20111;-85
2022/05/03 00:47:06;;;;;;;;;;;;;;;10.47;62.72;96378.28;1690060;85;20131;-86
2022/05/03 00:49:44;;;;;;;;;;;;;;;10.44;62.89;96372.15;1690242;84;20390;-86
2022/05/03 00:52:20;;;;;;;;;;;;;;;10.43;62.90;96370.55;1689956;84;20111;-86
2022/05/03 00:54:51;;;;;;;;;;;;;;;10.42;63.27;96372.83;1683686;85;20372;-86
2022/05/03 00:57:37;;;;;;;;;;;;;;;10.42;63.25;96369.42;1683850;85;20107;-85
2022/05/03 01:00:11;;;;;;;;;;;;;;;10.41;63.22;96369.08;1683943;85;20333;-86
2022/05/03 01:02:57;;;;;;;;;;;;;;;10.39;63.32;96371.86;1695535;84;20123;-86
2022/05/03 01:05:26;;;;;;;;;;;;;;;10.37;63.59;96365.24;1699434;84;20093;-86
2022/05/03 01:08:05;;;;;;;;;;;;;;;10.35;63.67;96359.42;1699412;84;20317;-86
2022/05/03 01:10:34;;;;;;;;;;;;;;;10.34;63.87;96359.92;1699155;84;20099;-86
2022/05/03 01:13:03;;;;;;;;;;;;;;;10.32;63.70;96361.90;1699383;84;20159;-86
2022/05/03 01:15:33;;;;;;;;;;;;;;;10.32;63.31;96363.69;1699251;84;20147;-86
2022/05/03 01:18:27;;;;;;;;;;;;;;;10.31;63.44;96362.89;1699266;84;20332;-85
2022/05/03 01:21:02;;;;;;;;;;;;;;;10.32;63.31;96358.50;1671312;86;20097;-86
2022/05/03 01:23:54;;;;;;;;;;;;;;;10.31;63.44;96359.48;1671443;86;20149;-86
2022/05/03 01:26:35;;;;;;;;;;;;;;;10.31;63.55;96363.38;1671313;86;20121;-83
2022/05/03 01:29:13;;;;;;;;;;;;;;;10.30;63.54;96360.47;1681970;84;20123;-84
2022/05/03 01:31:39;;;;;;;;;;;;;;;10.29;63.72;96359.66;1697825;84;20091;-84
2022/05/03 01:34:04;;;;;;;;;;;;;;;10.29;63.89;96360.16;1679835;85;20092;-86
2022/05/03 01:36:55;;;;;;;;;;;;;;;10.28;63.92;96348.97;1679643;85;20169;-86
2022/05/03 01:39:30;;;;;;;;;;;;;;;10.29;63.62;96351.07;1690582;84;20350;-86
2022/05/03 01:42:11;;;;;;;;;;;;;;;10.29;63.80;96349.28;1697406;84;20150;-86
2022/05/03 01:44:42;;;;;;;;;;;;;;;10.29;63.84;96356.27;1696996;85;20380;-86
2022/05/03 01:47:18;;;;;;;;;;;;;;;10.27;63.92;96360.34;1696642;85;20127;-86
2022/05/03 01:50:20;;;;;;;;;;;;;;;10.26;63.82;96367.82;1698241;84;20364;-86
2022/05/03 01:53:10;;;;;;;;;;;;;;;10.23;63.82;96367.66;1697200;85;20171;-86
2022/05/03 01:55:59;;;;;;;;;;;;;;;10.21;64.87;96364.44;1696839;84;20111;-86
2022/05/03 01:58:31;;;;;;;;;;;;;;;10.17;64.35;96365.77;1670659;85;20094;-86
2022/05/03 02:01:36;;;;;;;;;;;;;;;10.14;64.03;96365.32;1669171;86;20150;-86
2022/05/03 02:04:34;;;;;;;;;;;;;;;10.13;63.93;96365.81;1669199;86;20307;-85
2022/05/03 02:07:14;;;;;;;;;;;;;;;10.13;63.83;96365.81;1669216;86;20355;-85
2022/05/03 02:09:52;;;;;;;;;;;;;;;10.13;63.70;96367.11;1669181;86;20153;-86
2022/05/03 02:12:19;;;;;;;;;;;;;;;10.13;64.04;96367.11;1668855;86;20374;-86
2022/05/03 02:14:53;;;;;;;;;;;;;;;10.15;64.02;96366.44;1688437;84;20138;-86
2022/05/03 02:17:51;;;;;;;;;;;;;;;10.13;64.05;96371.50;1697142;85;20162;-86
2022/05/03 02:20:22;;;;;;;;;;;;;;;10.11;63.69;96374.28;1695369;85;20152;-86
2022/05/03 02:22:51;;;;;;;;;;;;;;;10.07;64.28;96367.81;1695184;85;20332;-86
2022/05/03 02:25:23;;;;;;;;;;;;;;;10.03;64.32;96367.86;1695235;85;20186;-86
2022/05/03 02:27:55;;;;;;;;;;;;;;;10.01;64.60;96359.45;1695255;85;20111;-86
2022/05/03 02:30:21;;;;;;;;;;;;;;;10.00;64.09;96366.92;1700495;84;20099;-86
2022/05/03 02:33:04;;;;;;;;;;;;;;;10.01;64.00;96366.43;1698569;84;20150;-86
2022/05/03 02:35:33;;;;;;;;;;;;;;;10.02;63.88;96361.55;1696948;85;20143;-84
2022/05/03 02:38:04;;;;;;;;;;;;;;;10.02;63.84;96354.56;1703891;84;20122;-84
2022/05/03 02:40:30;;;;;;;;;;;;;;;10.01;64.13;96356.85;1710289;84;20121;-84
2022/05/03 02:42:56;;;;;;;;;;;;;;;9.99;64.26;96351.53;1712981;84;20174;-86
2022/05/03 02:45:22;;;;;;;;;;;;;;;9.98;63.89;96346.83;1713162;84;20382;-86
2022/05/03 02:47:51;;;;;;;;;;;;;;;9.98;63.86;96346.02;1713045;84;20129;-86
2022/05/03 02:50:21;;;;;;;;;;;;;;;9.98;63.95;96349.42;1713074;84;20416;-86
2022/05/03 02:53:01;;;;;;;;;;;;;;;10.00;64.13;96354.44;1712921;84;20098;-86
2022/05/03 02:55:59;;;;;;;;;;;;;;;10.00;64.20;96355.24;1697978;83;20096;-86
2022/05/03 02:58:31;;;;;;;;;;;;;;;10.00;64.50;96363.52;1704802;84;20164;-86
2022/05/03 03:04:32;;;;;;;;;;;;;;;9.96;64.45;96360.98;1710231;84;20147;-86
2022/05/03 03:06:58;;;;;;;;;;;;;;;9.92;64.64;96357.45;1710305;84;20168;-86
2022/05/03 03:09:27;;;;;;;;;;;;;;;9.91;64.63;96357.10;1711206;83;20172;-86
2022/05/03 03:12:01;;;;;;;;;;;;;;;9.90;64.66;96358.58;1708113;83;20101;-85
2022/05/03 03:14:41;;;;;;;;;;;;;;;9.87;64.97;96360.23;1711565;83;20318;-86
2022/05/03 03:17:08;;;;;;;;;;;;;;;9.85;64.49;96361.72;1709076;83;20125;-86
2022/05/03 03:19:54;;;;;;;;;;;;;;;9.83;64.59;96365.48;1693733;85;20111;-86
2022/05/03 03:22:20;;;;;;;;;;;;;;;9.82;64.32;96369.05;1697784;85;20105;-85
2022/05/03 03:24:45;;;;;;;;;;;;;;;9.81;64.50;96370.05;1670432;85;20512;-86
2022/05/03 03:27:11;;;;;;;;;;;;;;;9.80;64.53;96363.23;1669805;84;20078;-86
2022/05/03 03:29:38;;;;;;;;;;;;;;;9.79;65.01;96372.01;1692880;85;20135;-86
2022/05/03 03:32:06;;;;;;;;;;;;;;;9.78;65.14;96366.02;1692414;85;20119;-86
2022/05/03 03:34:31;;;;;;;;;;;;;;;9.78;65.27;96369.10;1696461;85;20151;-86
2022/05/03 03:37:01;;;;;;;;;;;;;;;9.78;64.95;96371.20;1696188;85;20728;-86
2022/05/03 03:39:24;;;;;;;;;;;;;;;9.79;64.93;96374.61;1692080;85;20103;-86
2022/05/03 03:41:50;;;;;;;;;;;;;;;9.79;64.96;96369.42;1682117;85;20100;-85
2022/05/03 03:44:16;;;;;;;;;;;;;;;9.79;65.00;96371.52;1686298;85;20139;-85
2022/05/03 03:46:41;;;;;;;;;;;;;;;9.80;65.05;96370.53;1680801;85;20136;-84
2022/05/03 03:49:07;;;;;;;;;;;;;;;9.80;65.11;96371.02;1666339;85;20378;-84
2022/05/03 03:51:32;;;;;;;;;;;;;;;9.80;65.22;96371.02;1661928;86;20098;-84
2022/05/03 03:53:58;;;;;;;;;;;;;;;9.81;65.25;96376.53;1681439;85;20126;-84
2022/05/03 03:56:24;;;;;;;;;;;;;;;9.81;65.32;96369.55;1686358;85;20124;-84
2022/05/03 03:58:50;;;;;;;;;;;;;;;9.83;65.44;96378.45;1674559;85;20339;-84
2022/05/03 04:01:17;;;;;;;;;;;;;;;9.85;65.46;96368.70;1662372;85;20126;-84
2022/05/03 04:03:42;;;;;;;;;;;;;;;9.88;65.56;96376.12;1642594;86;20102;-84
2022/05/03 04:06:08;;;;;;;;;;;;;;;9.89;65.48;96377.23;1662069;86;20117;-84
2022/05/03 04:08:34;;;;;;;;;;;;;;;9.93;65.59;96379.81;1642524;86;20101;-84
2022/05/03 04:11:17;;;;;;;;;;;;;;;9.97;65.54;96378.16;1662121;86;20366;-84
2022/05/03 04:13:44;;;;;;;;;;;;;;;9.99;65.81;96377.48;1661593;86;20150;-84
2022/05/03 04:16:10;;;;;;;;;;;;;;;10.02;65.76;96377.93;1661942;86;20106;-84
2022/05/03 04:18:45;;;;;;;;;;;;;;;10.06;65.76;96375.28;1662084;86;20379;-84
2022/05/03 04:21:18;;;;;;;;;;;;;;;10.11;65.83;96372.98;1661707;86;20403;-86
2022/05/03 04:23:49;;;;;;;;;;;;;;;10.17;66.07;96374.85;1670649;84;20322;-86
2022/05/03 04:26:12;;;;;;;;;;;;;;;10.22;66.13;96371.73;1670283;84;20342;-86
2022/05/03 04:28:38;;;;;;;;;;;;;;;10.30;66.12;96374.75;1661931;86;20100;-85
2022/05/03 04:31:04;;;;;;;;;;;;;;;10.36;66.43;96369.63;1664114;85;20387;-85
2022/05/03 04:33:29;;;;;;;;;;;;;;;10.43;66.14;96373.63;1690152;84;20159;-85
2022/05/03 04:35:55;;;;;;;;;;;;;;;10.47;65.99;96371.78;1689917;85;20423;-86
2022/05/03 04:38:21;;;;;;;;;;;;;;;10.53;66.28;96367.16;1689790;85;20127;-85
2022/05/03 04:40:46;;;;;;;;;;;;;;;10.60;66.20;96371.64;1689805;85;20091;-85
2022/05/03 04:43:12;;;;;;;;;;;;;;;10.64;66.24;96371.09;1697691;85;20163;-85
2022/05/03 04:45:37;;;;;;;;;;;;;;;10.69;66.44;96370.53;1711364;82;20147;-86
2022/05/03 04:48:03;;;;;;;;;;;;;;;10.75;66.03;96370.63;1712380;84;20115;-85
2022/05/03 04:50:29;;;;;;;;;;;;;;;10.81;66.01;96363.88;1712278;84;20099;-85
2022/05/03 04:52:56;;;;;;;;;;;;;;;10.86;66.14;96362.02;1712422;84;20345;-86
2022/05/03 04:55:23;;;;;;;;;;;;;;;10.90;66.05;96360.66;1693988;82;20332;-85
2022/05/03 04:57:49;;;;;;;;;;;;;;;10.94;66.32;96354.93;1696769;85;20182;-85
2022/05/03 05:00:16;;;;;;;;;;;;;;;10.98;66.17;96355.36;1687336;82;20288;-86
2022/05/03 05:02:42;;;;;;;;;;;;;;;11.04;66.29;96355.91;1686392;83;20099;-85
2022/05/03 05:05:08;;;;;;;;;;;;;;;11.11;66.27;96362.80;1681761;83;20087;-85
2022/05/03 05:07:35;;;;;;;;;;;;;;;11.20;66.34;96358.77;1708547;82;20383;-85
2022/05/03 05:12:44;;;;;;;;;;;;;;;11.40;66.07;96369.69;1698083;85;20129;-86
2022/05/03 05:15:10;;;;;;;;;;;;;;;11.53;66.46;96378.57;1696975;83;20143;-85
2022/05/03 05:17:36;;;;;;;;;;;;;;;11.62;67.19;96381.36;1695987;83;20392;-85
2022/05/03 05:20:02;;;;;;;;;;;;;;;11.65;66.88;96383.09;1719936;82;20138;-86
2022/05/03 05:22:27;;;;;;;;;;;;;;;11.57;66.06;96385.03;1708647;82;20122;-86
2022/05/03 05:24:53;;;;;;;;;;;;;;;11.57;66.39;96385.03;1703385;82;20332;-85
2022/05/03 05:27:18;;;;;;;;;;;;;;;11.61;66.53;96381.05;1689925;82;20101;-85
2022/05/03 05:29:44;;;;;;;;;;;;;;;11.70;67.30;96383.81;1704618;82;20162;-86
2022/05/03 05:32:10;;;;;;;;;;;;;;;11.81;66.28;96383.34;1723649;82;20090;-86
2022/05/03 05:34:35;;;;;;;;;;;;;;;11.94;66.32;96384.74;1676861;83;20125;-86
2022/05/03 05:37:01;;;;;;;;;;;;;;;12.09;65.69;96384.64;1702308;82;20786;-85
2022/05/03 05:39:27;;;;;;;;;;;;;;;12.22;66.23;96383.43;1704262;84;20081;-86
2022/05/03 05:41:54;;;;;;;;;;;;;;;12.37;65.04;96382.52;1702912;84;20320;-86
2022/05/03 05:44:20;;;;;;;;;;;;;;;12.49;65.04;96383.05;1707513;83;20118;-85
2022/05/03 05:46:45;;;;;;;;;;;;;;;12.60;63.17;96380.41;1705664;83;20134;-86
2022/05/03 05:49:11;;;;;;;;;;;;;;;12.78;64.10;96370.24;1677965;84;20098;-86
2022/05/03 05:51:37;;;;;;;;;;;;;;;12.92;63.26;96376.31;1697450;84;20173;-85
2022/05/03 05:54:02;;;;;;;;;;;;;;;13.02;61.93;96368.93;1691634;83;20137;-86
2022/05/03 05:56:28;;;;;;;;;;;;;;;13.08;62.30;96370.73;1676733;86;20140;-86
2022/05/03 05:58:54;;;;;;;;;;;;;;;13.12;62.65;96373.75;1688483;83;20360;-86
2022/05/03 06:01:26;;;;;;;;;;;;;;;13.16;62.39;96373.65;1700853;84;20151;-85
2022/05/03 06:03:52;;;;;;;;;;;;;;;13.19;61.62;96375.41;1704304;83;20135;-86
2022/05/03 06:06:18;;;;;;;;;;;;;;;13.26;61.47;96383.25;1704625;83;20099;-85
2022/05/03 06:08:43;;;;;;;;;;;;;;;13.31;61.09;96383.44;1704677;84;20125;-86
2022/05/03 06:11:09;;;;;;;;;;;;;;;13.37;63.29;96380.06;1673660;84;20304;-86
2022/05/03 06:13:35;;;;;;;;;;;;;;;13.48;63.66;96386.47;1704039;83;20412;-86
2022/05/03 06:16:10;;;;;;;;;;;;;;;13.56;63.53;96381.08;1706613;83;20134;-86
2022/05/03 06:18:38;;;;;;;;;;;;;;;13.68;63.18;96386.02;1704181;84;20138;-86
2022/05/03 06:21:07;;;;;;;;;;;;;;;13.76;62.33;96381.88;1704560;84;20157;-86
2022/05/03 06:23:31;;;;;;;;;;;;;;;13.86;61.84;96386.70;1704510;84;20138;-86
2022/05/03 06:25:58;;;;;;;;;;;;;;;13.98;63.03;96382.45;1704620;83;20143;-86
2022/05/03 06:28:24;;;;;;;;;;;;;;;14.09;63.90;96390.19;1752203;82;20099;-86
2022/05/03 06:30:49;;;;;;;;;;;;;;;14.10;63.65;96405.66;1752327;82;20099;-86
2022/05/03 06:33:15;;;;;;;;;;;;;;;14.05;63.31;96425.07;1717761;82;20136;-86
2022/05/03 06:35:41;;;;;;;;;;;;;;;13.91;62.91;96440.95;1687168;85;20377;-86
2022/05/03 06:38:06;;;;;;;;;;;;;;;13.75;61.97;96450.78;1687697;84;20140;-86
2022/05/03 06:40:32;;;;;;;;;;;;;;;13.58;60.99;96447.45;1683479;84;20107;-85
2022/05/03 06:42:58;;;;;;;;;;;;;;;13.42;60.82;96444.20;1662076;84;20144;-86
2022/05/03 06:45:23;;;;;;;;;;;;;;;13.27;60.89;96446.67;1687098;84;20084;-86
2022/05/03 06:47:50;;;;;;;;;;;;;;;13.15;61.14;96456.83;1688130;84;20116;-86
2022/05/03 06:50:15;;;;;;;;;;;;;;;13.08;61.64;96447.69;1688007;84;20130;-85
2022/05/03 06:52:42;;;;;;;;;;;;;;;13.04;63.63;96446.48;1688833;84;20815;-86
2022/05/03 06:55:08;;;;;;;;;;;;;;;12.97;65.39;96441.72;1661072;85;20095;-85
2022/05/03 06:57:34;;;;;;;;;;;;;;;12.90;66.32;96436.99;1688493;84;20170;-86
2022/05/03 07:00:02;;;;;;;;;;;;;;;12.84;67.02;96430.73;1688496;85;20160;-86
2022/05/03 07:02:31;;;;;;;;;;;;;;;12.82;66.15;96428.02;1688441;84;20123;-86
2022/05/03 07:05:01;;;;;;;;;;;;;;;12.87;67.40;96424.34;1688372;84;20096;-86
2022/05/03 07:07:27;;;;;;;;;;;;;;;13.03;66.89;96421.90;1688415;85;20152;-87
2022/05/03 07:09:53;;;;;;;;;;;;;;;13.20;66.89;96423.19;1686481;84;20147;-86
2022/05/03 07:12:18;;;;;;;;;;;;;;;13.43;65.45;96414.99;1679424;84;20170;-86
2022/05/03 07:14:44;;;;;;;;;;;;;;;13.61;63.54;96419.13;1687406;84;20116;-86
2022/05/03 07:22:45;;;;;;;;;;;;;;;13.81;62.63;96418.63;1691847;84;20132;-85
2022/05/03 07:25:06;;;;;;;;;;;;;;;14.38;63.54;96429.45;1677153;84;20151;-87
2022/05/03 07:27:32;;;;;;;;;;;;;;;14.44;62.62;96439.11;1688414;84;20092;-87
2022/05/03 07:29:57;;;;;;;;;;;;;;;14.37;61.27;96450.06;1697346;84;20389;-86
2022/05/03 07:32:23;;;;;;;;;;;;;;;14.23;60.51;96449.78;1703571;84;20242;-86
2022/05/03 07:34:48;;;;;;;;;;;;;;;14.10;60.97;96451.38;1707082;83;20086;-86
2022/05/03 07:37:14;;;;;;;;;;;;;;;14.03;61.27;96455.02;1710454;83;20179;-86
2022/05/03 07:39:40;;;;;;;;;;;;;;;13.93;61.42;96461.14;1678691;84;20121;-86
2022/05/03 07:42:07;;;;;;;;;;;;;;;13.85;62.01;96464.77;1707969;84;20361;-88
2022/05/03 07:44:33;;;;;;;;;;;;;;;13.80;62.08;96469.26;1702522;83;20133;-87
2022/05/03 07:46:59;;;;;;;;;;;;;;;13.75;62.42;96471.67;1712234;84;20391;-86
2022/05/03 07:49:25;;;;;;;;;;;;;;;13.74;62.52;96470.06;1709321;84;20097;-86
2022/05/03 07:51:53;;;;;;;;;;;;;;;13.71;63.32;96465.25;1702766;84;20184;-86
2022/05/03 07:54:19;;;;;;;;;;;;;;;13.71;63.43;96461.83;1715453;84;20180;-85
2022/05/03 07:56:46;;;;;;;;;;;;;;;13.70;64.72;96458.41;1704765;83;20172;-87
2022/05/03 07:59:12;;;;;;;;;;;;;;;13.70;65.87;96441.95;1695952;84;20127;-86
2022/05/03 08:01:40;;;;;;;;;;;;;;;13.59;66.18;96422.44;1707976;84;20144;-87
2022/05/03 08:04:06;;;;;;;;;;;;;;;13.60;66.82;96418.83;1711462;84;20129;-87
2022/05/03 08:06:32;;;;;;;;;;;;;;;13.58;67.79;96423.95;1708807;83;20113;-87
2022/05/03 08:08:58;;;;;;;;;;;;;;;13.55;69.01;96425.16;1713016;83;20442;-86
2022/05/03 08:11:26;;;;;;;;;;;;;;;13.53;69.06;96421.14;1704524;84;20103;-88
2022/05/03 08:13:55;;;;;;;;;;;;;;;13.56;69.21;96420.73;1705529;83;20173;-87
2022/05/03 08:16:20;;;;;;;;;;;;;;;13.63;70.14;96425.45;1702517;84;20111;-87
2022/05/03 08:18:47;;;;;;;;;;;;;;;13.74;70.33;96428.78;1700748;84;20367;-87
2022/05/03 08:21:13;;;;;;;;;;;;;;;13.84;71.23;96434.42;1706356;84;20098;-87
2022/05/03 08:23:39;;;;;;;;;;;;;;;13.90;71.01;96438.03;1708088;84;20109;-88
2022/05/03 08:26:05;;;;;;;;;;;;;;;14.00;69.52;96438.45;1707179;83;20101;-87
2022/05/03 08:28:31;;;;;;;;;;;;;;;14.13;69.62;96439.72;1710505;84;20164;-87
2022/05/03 08:30:57;;;;;;;;;;;;;;;14.38;70.37;96442.52;1697027;83;20391;-87
2022/05/03 08:33:23;;;;;;;;;;;;;;;14.63;71.04;96438.26;1711675;84;20145;-87
2022/05/03 08:35:49;;;;;;;;;;;;;;;14.93;71.26;96441.69;1697043;84;20373;-88
2022/05/03 08:43:43;;;;;;;;;;;;;;;15.63;63.27;96441.78;1685223;84;20122;-87
2022/05/03 08:46:10;;;;;;;;;;;;;;;15.75;62.09;96442.18;1682091;84;20149;-87
2022/05/03 08:48:40;;;;;;;;;;;;;;;15.83;60.61;96441.13;1689791;84;20591;-86
2022/05/03 08:51:07;;;;;;;;;;;;;;;15.87;59.79;96444.41;1692942;84;20190;-86
2022/05/03 08:53:33;;;;;;;;;;;;;;;15.91;59.43;96444.78;1696434;84;20103;-87
2022/05/03 08:55:59;;;;;;;;;;;;;;;15.96;58.75;96444.97;1684024;83;20371;-87
2022/05/03 08:58:24;;;;;;;;;;;;;;;16.17;59.03;96445.89;1690641;83;20086;-87
2022/05/03 09:00:50;;;;;;;;;;;;;;;16.43;58.16;96447.96;1697188;84;20226;-86
2022/05/03 09:03:16;;;;;;;;;;;;;;;16.69;57.77;96450.88;1686578;84;20162;-86
2022/05/03 09:05:41;;;;;;;;;;;;;;;16.92;57.96;96450.20;1696952;84;20357;-86
2022/05/03 09:08:09;;;;;;;;;;;;;;;17.14;57.99;96450.56;1696783;84;20249;-86
2022/05/03 09:10:37;;;;;;;;;;;;;;;17.30;55.71;96449.95;1696242;83;20122;-87
2022/05/03 09:13:17;;;;;;;;;;;;;;;17.34;54.29;96449.28;1693646;83;20114;-86
2022/05/03 09:15:43;;;;;;;;;;;;;;;17.42;54.25;96445.56;1698999;83;20148;-86
2022/05/03 09:18:09;;;;;;;;;;;;;;;17.55;55.08;96441.92;1695943;85;20809;-89
2022/05/03 09:26:22;;;;;;;;;;;;;;;17.83;52.65;96434.27;1695856;84;20163;-86
2022/05/03 09:28:53;;;;;;;;;;;;;;;17.93;51.26;96434.52;1696121;85;20127;-86
2022/05/03 09:31:35;;;;;;;;;;;;;;;17.97;51.85;96433.03;1673703;85;20159;-87
2022/05/03 09:34:06;;;;;;;;;;;;;;;18.05;52.31;96431.09;1684225;85;20115;-85
2022/05/03 09:36:48;;;;;;;;;;;;;;;18.11;51.02;96431.00;1681142;85;20127;-89
2022/05/03 09:39:22;;;;;;;;;;;;;;;18.20;50.82;96431.45;1687372;84;20142;-89
2022/05/03 09:42:03;;;;;;;;;;;;;;;18.20;50.81;96422.23;1686534;84;20746;-87
2022/05/03 09:44:30;;;;;;;;;;;;;;;18.38;50.31;96420.80;1653597;85;20145;-88
2022/05/03 09:46:56;;;;;;;;;;;;;;;18.51;49.42;96427.67;1698788;83;20185;-88
2022/05/03 09:49:38;;;;;;;;;;;;;;;18.57;48.14;96426.25;1698733;84;20130;-87
2022/05/03 09:52:04;;;;;;;;;;;;;;;18.63;48.73;96420.59;1699100;84;20377;-88
2022/05/03 09:54:49;;;;;;;;;;;;;;;18.70;48.32;96421.26;1646836;86;20089;-88
2022/05/03 09:57:20;;;;;;;;;;;;;;;18.68;48.62;96418.06;1701134;84;20152;-89
2022/05/03 09:59:47;;;;;;;;;;;;;;;18.77;47.42;96418.52;1670472;85;20400;-88
2022/05/03 10:02:14;;;;;;;;;;;;;;;18.86;48.20;96415.80;1700459;84;20105;-87
2022/05/03 10:04:40;;;;;;;;;;;;;;;18.91;48.52;96417.75;1671125;85;20172;-87
2022/05/03 10:07:05;;;;;;;;;;;;;;;19.02;48.47;96420.33;1698593;84;20370;-88
2022/05/03 10:09:32;;;;;;;;;;;;;;;19.10;46.66;96411.27;1698587;84;20070;-87
2022/05/03 10:12:00;;;;;;;;;;;;;;;19.09;44.48;96411.00;1698570;85;20389;-88
2022/05/03 10:14:26;;;;;;;;;;;;;;;19.10;45.70;96412.59;1698095;84;20461;-88
2022/05/03 10:22:22;;;;;;;;;;;;;;;19.41;45.20;96398.15;1695863;84;20121;-88
2022/05/03 10:24:55;;;;;;;;;;;;;;;19.45;45.90;96394.00;1670588;85;20146;-88
2022/05/03 10:27:27;;;;;;;;;;;;;;;19.39;45.95;96396.27;1670644;86;20139;-87
2022/05/03 10:30:20;;;;;;;;;;;;;;;19.45;45.70;96394.80;1670655;85;20079;-88
2022/05/03 10:33:23;;;;;;;;;;;;;;;19.34;44.36;96389.05;1691114;85;20106;-88
2022/05/03 10:35:50;;;;;;;;;;;;;;;19.07;45.08;96394.63;1698462;84;20148;-87
2022/05/03 10:38:18;;;;;;;;;;;;;;;19.05;44.72;96396.19;1698678;84;20180;-88
2022/05/03 10:40:46;;;;;;;;;;;;;;;19.13;44.34;96389.73;1675630;85;20402;-88
2022/05/03 10:43:14;;;;;;;;;;;;;;;19.26;43.99;96389.97;1709746;82;20375;-88
2022/05/03 10:45:48;;;;;;;;;;;;;;;19.32;41.89;96385.06;1711974;83;20399;-87
2022/05/03 10:48:25;;;;;;;;;;;;;;;19.35;43.72;96381.95;1730553;83;21444;-87
2022/05/03 10:50:52;;;;;;;;;;;;;;;19.44;40.98;96390.56;1726031;83;20114;-88
2022/05/03 10:53:19;;;;;;;;;;;;;;;19.56;43.20;96379.20;1699986;84;20094;-87
2022/05/03 10:56:04;;;;;;;;;;;;;;;19.68;41.81;96384.66;1699990;84;20184;-87
2022/05/03 10:58:32;;;;;;;;;;;;;;;19.72;42.61;96382.37;1722646;83;20113;-87
2022/05/03 11:01:10;;;;;;;;;;;;;;;19.77;41.65;96383.76;1730748;83;20112;-87
2022/05/03 11:03:38;;;;;;;;;;;;;;;19.76;43.14;96379.53;1730459;83;20163;-87
2022/05/03 11:06:21;;;;;;;;;;;;;;;19.78;40.41;96374.29;1729619;83;20315;-87
2022/05/03 11:09:05;;;;;;;;;;;;;;;19.66;41.95;96372.76;1730315;83;20145;-87
2022/05/03 11:11:47;;;;;;;;;;;;;;;19.67;41.85;96371.72;1713827;83;20090;-88
2022/05/03 11:14:20;;;;;;;;;;;;;;;19.61;40.24;96370.05;1706969;84;20154;-87
2022/05/03 11:17:08;;;;;;;;;;;;;;;19.55;41.68;96365.74;1726171;83;20125;-87
2022/05/03 11:19:48;;;;;;;;;;;;;;;19.47;42.58;96365.05;1730006;83;20400;-88
2022/05/03 11:22:17;;;;;;;;;;;;;;;19.52;43.68;96368.28;1696034;85;20756;-88
2022/05/03 11:24:52;;;;;;;;;;;;;;;19.65;44.08;96362.73;1695802;85;20107;-88
2022/05/03 11:27:18;;;;;;;;;;;;;;;19.88;43.05;96364.95;1695913;85;20102;-88
2022/05/03 11:29:46;;;;;;;;;;;;;;;20.08;41.61;96362.09;1712082;83;20136;-88
2022/05/03 11:32:12;;;;;;;;;;;;;;;20.16;41.43;96359.55;1699467;84;20091;-87
2022/05/03 11:34:38;;;;;;;;;;;;;;;20.35;40.70;96362.21;1699921;84;20123;-87
2022/05/03 11:37:04;;;;;;;;;;;;;;;20.16;39.38;96353.47;1699984;84;20332;-87
2022/05/03 11:39:30;;;;;;;;;;;;;;;20.18;41.23;96359.33;1700213;84;20099;-87
2022/05/03 11:41:56;;;;;;;;;;;;;;;20.32;42.15;96355.28;1700062;84;20178;-87
2022/05/03 11:44:22;;;;;;;;;;;;;;;20.53;42.43;96353.75;1690305;84;20324;-87
2022/05/03 11:46:48;;;;;;;;;;;;;;;20.57;39.93;96353.53;1676231;85;20115;-87
2022/05/03 11:49:15;;;;;;;;;;;;;;;20.59;40.32;96353.56;1668476;86;20271;-86
2022/05/03 11:57:22;;;;;;;;;;;;;;;20.87;38.85;96349.94;1669521;86;20126;-87
2022/05/03 11:59:55;;;;;;;;;;;;;;;20.88;40.74;96351.53;1669371;86;20090;-87
2022/05/03 12:02:22;;;;;;;;;;;;;;;21.03;40.19;96348.26;1669343;86;20168;-87
2022/05/03 12:05:11;;;;;;;;;;;;;;;21.09;39.72;96354.38;1669374;86;20105;-87
2022/05/03 12:07:45;;;;;;;;;;;;;;;21.08;39.31;96341.70;1669572;85;20133;-88
2022/05/03 12:10:24;;;;;;;;;;;;;;;21.25;38.89;96345.07;1669639;86;20142;-88
2022/05/03 12:13:10;;;;;;;;;;;;;;;21.30;38.93;96344.31;1668943;86;20239;-87
2022/05/03 12:15:39;;;;;;;;;;;;;;;21.25;39.28;96337.67;1668931;86;20390;-87
2022/05/03 12:18:18;;;;;;;;;;;;;;;21.07;39.36;96345.91;1668745;86;20418;-87
2022/05/03 12:20:48;;;;;;;;;;;;;;;20.95;39.26;96352.65;1668420;86;20145;-86
2022/05/03 12:23:17;;;;;;;;;;;;;;;20.98;37.94;96346.34;1669367;86;20086;-87
2022/05/03 12:25:48;;;;;;;;;;;;;;;20.94;39.24;96348.41;1669594;86;20110;-86
2022/05/03 12:28:13;;;;;;;;;;;;;;;20.87;38.10;96344.66;1669438;86;20093;-87
2022/05/03 12:30:39;;;;;;;;;;;;;;;20.60;39.75;96347.23;1669477;86;20287;-87
2022/05/03 12:33:07;;;;;;;;;;;;;;;20.30;39.01;96350.25;1694987;85;20435;-86
2022/05/03 12:35:34;;;;;;;;;;;;;;;20.04;39.78;96348.32;1697439;85;20100;-86
2022/05/03 12:38:12;;;;;;;;;;;;;;;20.23;42.03;96347.00;1697367;85;20146;-87
2022/05/03 12:40:50;;;;;;;;;;;;;;;20.30;39.60;96340.22;1695777;84;20340;-87
2022/05/03 12:43:19;;;;;;;;;;;;;;;20.32;38.29;96341.56;1699275;84;20110;-87
2022/05/03 12:46:01;;;;;;;;;;;;;;;20.21;39.21;96345.13;1709625;84;20406;-87
2022/05/03 12:48:28;;;;;;;;;;;;;;;19.93;38.58;96346.04;1689235;84;20114;-86
2022/05/03 12:50:55;;;;;;;;;;;;;;;19.69;40.00;96345.43;1710341;84;20158;-86
2022/05/03 12:53:26;;;;;;;;;;;;;;;19.74;39.20;96340.74;1710692;84;20130;-87
2022/05/03 12:55:53;;;;;;;;;;;;;;;19.85;39.65;96337.72;1709592;84;20091;-87
2022/05/03 12:58:22;;;;;;;;;;;;;;;20.02;40.67;96336.70;1710669;84;20332;-87
2022/05/03 13:00:50;;;;;;;;;;;;;;;20.13;39.81;96331.02;1710512;83;20332;-87
2022/05/03 13:03:16;;;;;;;;;;;;;;;20.05;39.15;96327.50;1695856;85;20114;-87
2022/05/03 13:05:42;;;;;;;;;;;;;;;20.13;40.43;96328.91;1698521;85;20147;-88
2022/05/03 13:08:07;;;;;;;;;;;;;;;20.24;40.04;96331.97;1724403;83;20101;-86
2022/05/03 13:10:36;;;;;;;;;;;;;;;20.32;40.12;96324.41;1698322;85;20107;-87
2022/05/03 13:13:03;;;;;;;;;;;;;;;20.35;39.32;96327.91;1710596;84;20097;-86
2022/05/03 13:15:28;;;;;;;;;;;;;;;20.35;39.64;96317.88;1716319;83;20102;-87
2022/05/03 13:17:54;;;;;;;;;;;;;;;20.38;40.56;96310.27;1667535;86;20323;-87
2022/05/03 13:20:20;;;;;;;;;;;;;;;20.49;39.57;96308.55;1700414;84;20142;-87
2022/05/03 13:22:46;;;;;;;;;;;;;;;20.56;39.35;96307.06;1743516;82;20194;-87
2022/05/03 13:25:11;;;;;;;;;;;;;;;20.62;40.27;96308.71;1742948;82;20094;-86
2022/05/03 13:27:37;;;;;;;;;;;;;;;20.64;39.50;96306.63;1712819;83;20156;-87
2022/05/03 13:30:03;;;;;;;;;;;;;;;20.66;39.10;96315.09;1726449;83;20093;-86
2022/05/03 13:32:29;;;;;;;;;;;;;;;20.64;38.21;96310.58;1726520;83;20118;-86
2022/05/03 13:34:56;;;;;;;;;;;;;;;20.68;39.24;96321.73;1682046;85;20151;-90
2022/05/03 13:42:51;;;;;;;;;;;;;;;20.32;38.34;96313.86;1708463;84;20091;-88
2022/05/03 13:45:17;;;;;;;;;;;;;;;20.23;38.76;96305.31;1710000;83;20132;-87